Time;durP1;ratioP1;P1;durP2;ratioP2;P2;SDS_P1;SDS_P2;PMS_P1;PMS_P2;Temp;Humidity;BMP_temperature;BMP_pressure;BME280_temperature;BME280_humidity;BME280_pressure;Samples;Min_cycle;Max_cycle;Signal;HPM_P1;HPM_P2
2022/03/01 00:00:42;;;;;;;21.80;14.40;;;;;;;;;;4956413;28;93650;-75
2022/03/01 00:03:08;;;;;;;24.45;14.32;;;;;;;;;;4956947;28;93011;-75
2022/03/01 00:05:35;;;;;;;21.75;14.48;;;;;;;;;;4957063;28;92214;-75
2022/03/01 00:08:01;;;;;;;22.65;15.02;;;;;;;;;;4957050;28;92767;-75
2022/03/01 00:10:28;;;;;;;24.55;15.05;;;;;;;;;;4956898;28;92260;-75
2022/03/01 00:12:54;;;;;;;26.27;15.13;;;;;;;;;;4956885;28;92262;-75
2022/03/01 00:15:20;;;;;;;23.25;13.93;;;;;;;;;;4956674;28;93447;-75
2022/03/01 00:17:47;;;;;;;24.23;15.05;;;;;;;;;;4958121;28;95698;-75
2022/03/01 00:20:13;;;;;;;24.27;16.17;;;;;;;;;;4956762;28;95858;-76
2022/03/01 00:22:40;;;;;;;22.90;14.57;;;;;;;;;;4956724;28;93931;-75
2022/03/01 00:25:06;;;;;;;23.70;15.27;;;;;;;;;;4956422;28;92325;-76
2022/03/01 00:27:33;;;;;;;22.13;14.73;;;;;;;;;;4956505;28;93419;-77
2022/03/01 00:29:59;;;;;;;24.98;15.00;;;;;;;;;;4956646;28;93633;-75
2022/03/01 00:32:25;;;;;;;24.65;14.55;;;;;;;;;;4956629;28;92327;-76
2022/03/01 00:34:52;;;;;;;23.98;14.38;;;;;;;;;;4956914;28;93581;-75
2022/03/01 00:37:18;;;;;;;24.50;15.20;;;;;;;;;;4956517;28;92912;-76
2022/03/01 00:39:44;;;;;;;25.30;15.25;;;;;;;;;;4958949;28;92177;-75
2022/03/01 00:42:11;;;;;;;28.15;14.90;;;;;;;;;;4954487;28;96871;-75
2022/03/01 00:44:39;;;;;;;24.58;15.20;;;;;;;;;;4956520;28;92213;-75
2022/03/01 00:47:05;;;;;;;29.40;15.90;;;;;;;;;;4956592;28;93445;-76
2022/03/01 00:49:32;;;;;;;23.92;14.95;;;;;;;;;;4956320;28;93744;-75
2022/03/01 00:51:58;;;;;;;22.50;14.80;;;;;;;;;;4956285;28;92502;-75
2022/03/01 00:54:24;;;;;;;21.48;14.90;;;;;;;;;;4956422;28;92773;-75
2022/03/01 00:56:51;;;;;;;25.48;15.23;;;;;;;;;;4955186;28;93213;-75
2022/03/01 00:59:17;;;;;;;23.77;14.40;;;;;;;;;;4956676;28;91496;-75
2022/03/01 01:01:44;;;;;;;21.90;14.63;;;;;;;;;;4959227;28;92573;-75
2022/03/01 01:04:10;;;;;;;23.30;14.82;;;;;;;;;;4956137;28;92273;-75
2022/03/01 01:06:37;;;;;;;24.02;15.80;;;;;;;;;;4954395;28;96466;-76
2022/03/01 01:09:04;;;;;;;25.05;16.00;;;;;;;;;;4955777;28;93596;-75
2022/03/01 01:11:30;;;;;;;23.10;15.63;;;;;;;;;;4958613;28;93151;-77
2022/03/01 01:13:57;;;;;;;26.67;15.43;;;;;;;;;;4959505;28;93398;-75
2022/03/01 01:16:23;;;;;;;23.90;15.27;;;;;;;;;;4959325;28;93694;-75
2022/03/01 01:18:49;;;;;;;25.40;15.90;;;;;;;;;;4959427;28;92263;-74
2022/03/01 01:21:19;;;;;;;23.45;15.27;;;;;;;;;;4958946;28;92904;-77
2022/03/01 01:23:45;;;;;;;22.75;14.52;;;;;;;;;;4963055;28;91905;-75
2022/03/01 01:26:13;;;;;;;21.85;14.45;;;;;;;;;;4959427;28;92315;-75
2022/03/01 01:28:39;;;;;;;24.88;15.30;;;;;;;;;;4959252;28;93861;-75
2022/03/01 01:31:05;;;;;;;22.67;15.32;;;;;;;;;;4957751;28;94740;-75
2022/03/01 01:33:32;;;;;;;24.80;15.85;;;;;;;;;;4959298;28;95691;-75
2022/03/01 01:35:58;;;;;;;25.48;14.73;;;;;;;;;;4958678;28;94303;-76
2022/03/01 01:38:24;;;;;;;24.85;15.75;;;;;;;;;;4959349;28;92773;-75
2022/03/01 01:40:51;;;;;;;24.60;15.98;;;;;;;;;;4959101;28;93588;-75
2022/03/01 01:43:17;;;;;;;27.17;15.93;;;;;;;;;;4959002;28;93440;-75
2022/03/01 01:45:44;;;;;;;22.23;14.88;;;;;;;;;;4962191;28;92245;-75
2022/03/01 01:48:10;;;;;;;21.48;14.38;;;;;;;;;;4959395;28;92846;-75
2022/03/01 01:50:37;;;;;;;23.23;15.23;;;;;;;;;;4958584;28;92419;-75
2022/03/01 01:53:03;;;;;;;27.17;15.60;;;;;;;;;;4958942;28;93497;-75
2022/03/01 01:55:29;;;;;;;27.17;15.88;;;;;;;;;;4957131;28;96050;-75
2022/03/01 01:57:57;;;;;;;25.73;15.20;;;;;;;;;;4958645;28;92295;-75
2022/03/01 02:00:23;;;;;;;26.02;15.18;;;;;;;;;;4958710;28;93021;-75
2022/03/01 02:02:50;;;;;;;24.95;14.60;;;;;;;;;;4958469;28;93304;-75
2022/03/01 02:05:16;;;;;;;27.48;15.57;;;;;;;;;;4961487;28;92375;-75
2022/03/01 02:07:44;;;;;;;28.40;14.45;;;;;;;;;;4958719;28;92645;-75
2022/03/01 02:10:10;;;;;;;23.30;15.30;;;;;;;;;;4958785;28;92304;-76
2022/03/01 02:12:37;;;;;;;23.42;15.52;;;;;;;;;;4959163;28;93947;-75
2022/03/01 02:15:03;;;;;;;22.92;15.25;;;;;;;;;;4958324;28;93698;-75
2022/03/01 02:17:30;;;;;;;22.63;14.57;;;;;;;;;;4958550;28;92335;-76
2022/03/01 02:19:57;;;;;;;26.05;15.50;;;;;;;;;;4956748;28;94749;-75
2022/03/01 02:22:30;;;;;;;24.25;15.88;;;;;;;;;;4957716;28;94051;-75
2022/03/01 02:24:57;;;;;;;22.73;15.02;;;;;;;;;;4958527;28;92277;-75
2022/03/01 02:27:23;;;;;;;25.08;15.93;;;;;;;;;;4961362;28;93598;-75
2022/03/01 02:29:49;;;;;;;26.40;15.65;;;;;;;;;;4958258;28;92287;-74
2022/03/01 02:32:16;;;;;;;24.15;16.17;;;;;;;;;;4958099;28;92787;-75
2022/03/01 02:34:42;;;;;;;23.15;15.68;;;;;;;;;;4958607;28;94281;-76
2022/03/01 02:37:08;;;;;;;29.77;15.23;;;;;;;;;;4958664;28;91507;-75
2022/03/01 02:39:35;;;;;;;24.02;16.20;;;;;;;;;;4958154;28;92536;-75
2022/03/01 02:42:01;;;;;;;24.63;15.88;;;;;;;;;;4958180;28;93396;-75
2022/03/01 02:44:28;;;;;;;26.05;15.85;;;;;;;;;;4956567;28;94678;-75
2022/03/01 02:46:54;;;;;;;27.25;15.18;;;;;;;;;;4957659;28;95425;-75
2022/03/01 02:49:21;;;;;;;24.45;15.95;;;;;;;;;;4961338;28;93174;-75
2022/03/01 02:51:47;;;;;;;23.90;16.02;;;;;;;;;;4958085;28;93478;-75
2022/03/01 02:54:13;;;;;;;25.65;15.27;;;;;;;;;;4958027;28;93502;-75
2022/03/01 02:56:40;;;;;;;22.90;15.73;;;;;;;;;;4956544;28;92257;-75
2022/03/01 02:59:07;;;;;;;24.75;15.55;;;;;;;;;;4957258;28;93511;-75
2022/03/01 03:01:34;;;;;;;28.67;15.75;;;;;;;;;;4957938;28;92712;-76
2022/03/01 03:04:01;;;;;;;26.63;16.13;;;;;;;;;;4957761;28;92375;-75
2022/03/01 03:06:27;;;;;;;26.17;15.13;;;;;;;;;;4958047;28;93528;-74
2022/03/01 03:08:54;;;;;;;28.13;15.57;;;;;;;;;;4956043;28;95807;-75
2022/03/01 03:11:20;;;;;;;23.33;16.08;;;;;;;;;;4960894;28;92366;-75
2022/03/01 03:13:47;;;;;;;27.35;16.05;;;;;;;;;;4957613;28;93800;-74
2022/03/01 03:16:13;;;;;;;23.67;16.42;;;;;;;;;;4955869;28;92482;-74
2022/03/01 03:18:39;;;;;;;24.48;16.15;;;;;;;;;;4957722;28;93345;-75
2022/03/01 03:21:06;;;;;;;24.10;15.55;;;;;;;;;;4957474;28;93573;-75
2022/03/01 03:23:33;;;;;;;23.88;16.25;;;;;;;;;;4957734;28;92239;-75
2022/03/01 03:25:59;;;;;;;27.67;16.52;;;;;;;;;;4957995;28;93427;-75
2022/03/01 03:28:25;;;;;;;24.45;15.65;;;;;;;;;;4956260;28;93569;-75
2022/03/01 03:30:52;;;;;;;24.80;16.15;;;;;;;;;;4957141;28;92347;-74
2022/03/01 03:33:19;;;;;;;23.52;16.27;;;;;;;;;;4958532;28;94806;-74
2022/03/01 03:35:48;;;;;;;21.30;15.80;;;;;;;;;;4956907;28;92310;-75
2022/03/01 03:38:14;;;;;;;26.23;15.90;;;;;;;;;;4957456;28;93483;-75
2022/03/01 03:40:40;;;;;;;26.27;16.63;;;;;;;;;;4955952;28;94862;-75
2022/03/01 03:43:07;;;;;;;24.13;15.20;;;;;;;;;;4957043;28;92279;-75
2022/03/01 03:45:33;;;;;;;28.05;16.48;;;;;;;;;;4957129;28;93803;-75
2022/03/01 03:47:59;;;;;;;23.30;15.82;;;;;;;;;;4957153;28;93699;-75
2022/03/01 03:50:26;;;;;;;24.40;15.45;;;;;;;;;;4956444;28;91848;-75
2022/03/01 03:52:53;;;;;;;24.58;15.82;;;;;;;;;;4957100;28;92765;-75
2022/03/01 03:55:19;;;;;;;24.08;16.15;;;;;;;;;;4958618;28;95044;-74
2022/03/01 03:57:46;;;;;;;23.55;16.00;;;;;;;;;;4955009;28;94737;-75
2022/03/01 04:00:15;;;;;;;29.45;16.73;;;;;;;;;;4956078;28;93554;-75
2022/03/01 04:02:42;;;;;;;25.95;16.08;;;;;;;;;;4957058;28;92320;-75
2022/03/01 04:05:09;;;;;;;25.90;16.60;;;;;;;;;;4957143;28;93645;-75
2022/03/01 04:07:35;;;;;;;25.77;16.08;;;;;;;;;;4956879;28;93965;-75
2022/03/01 04:10:02;;;;;;;25.83;15.50;;;;;;;;;;4957005;28;92266;-75
2022/03/01 04:12:28;;;;;;;33.60;17.40;;;;;;;;;;4956580;28;92900;-74
2022/03/01 04:14:54;;;;;;;25.85;15.98;;;;;;;;;;4960337;28;92748;-74
2022/03/01 04:17:22;;;;;;;24.92;15.30;;;;;;;;;;4955441;28;93899;-74
2022/03/01 04:19:48;;;;;;;23.33;15.57;;;;;;;;;;4956847;28;92692;-74
2022/03/01 04:22:14;;;;;;;22.77;15.68;;;;;;;;;;4955345;28;94682;-75
2022/03/01 04:24:40;;;;;;;25.58;16.15;;;;;;;;;;4956873;28;94838;-74
2022/03/01 04:27:07;;;;;;;23.13;15.48;;;;;;;;;;4956273;28;93979;-74
2022/03/01 04:29:34;;;;;;;24.80;15.32;;;;;;;;;;4956797;28;92207;-75
2022/03/01 04:32:02;;;;;;;25.83;14.85;;;;;;;;;;4956733;28;93466;-74
2022/03/01 04:34:28;;;;;;;25.48;16.23;;;;;;;;;;4956756;28;93538;-74
2022/03/01 04:36:56;;;;;;;25.58;15.73;;;;;;;;;;4959988;28;92379;-74
2022/03/01 04:39:22;;;;;;;27.42;16.02;;;;;;;;;;4959081;28;92319;-74
2022/03/01 04:41:48;;;;;;;25.75;16.35;;;;;;;;;;4958144;28;93777;-74
2022/03/01 04:44:15;;;;;;;25.20;15.43;;;;;;;;;;4956708;28;93635;-74
2022/03/01 04:46:42;;;;;;;23.08;15.73;;;;;;;;;;4957570;28;95383;-75
2022/03/01 04:49:09;;;;;;;22.27;15.38;;;;;;;;;;4960074;28;92309;-75
2022/03/01 04:51:36;;;;;;;27.63;16.17;;;;;;;;;;4958816;28;94661;-75
2022/03/01 04:54:02;;;;;;;24.88;15.98;;;;;;;;;;4959868;28;93094;-75
2022/03/01 04:56:29;;;;;;;23.02;15.93;;;;;;;;;;4958235;28;93282;-74
2022/03/01 04:58:55;;;;;;;24.92;16.20;;;;;;;;;;4962725;28;93702;-74
2022/03/01 05:01:22;;;;;;;25.42;16.17;;;;;;;;;;4959920;28;92427;-74
2022/03/01 05:03:49;;;;;;;25.88;16.33;;;;;;;;;;4958785;28;95893;-74
2022/03/01 05:06:15;;;;;;;23.08;15.90;;;;;;;;;;4959726;28;93822;-74
2022/03/01 05:08:41;;;;;;;22.83;15.57;;;;;;;;;;4959324;28;92306;-75
2022/03/01 05:11:08;;;;;;;22.77;15.43;;;;;;;;;;4958227;28;94645;-75
2022/03/01 05:13:35;;;;;;;24.83;15.85;;;;;;;;;;4959185;28;93004;-75
2022/03/01 05:16:01;;;;;;;24.40;15.30;;;;;;;;;;4959466;28;92251;-74
2022/03/01 05:18:28;;;;;;;25.98;15.73;;;;;;;;;;4959400;28;94150;-73
2022/03/01 05:20:54;;;;;;;24.50;16.05;;;;;;;;;;4962457;28;93713;-74
2022/03/01 05:23:20;;;;;;;25.60;14.88;;;;;;;;;;4958954;28;92796;-74
2022/03/01 05:25:48;;;;;;;21.25;14.25;;;;;;;;;;4959404;28;94010;-74
2022/03/01 05:28:14;;;;;;;21.30;14.73;;;;;;;;;;4959766;28;91549;-74
2022/03/01 05:30:41;;;;;;;23.75;16.23;;;;;;;;;;4959454;28;92674;-74
2022/03/01 05:33:07;;;;;;;25.95;15.35;;;;;;;;;;4959268;28;93629;-74
2022/03/01 05:35:33;;;;;;;21.77;14.60;;;;;;;;;;4957872;28;95495;-74
2022/03/01 05:38:00;;;;;;;26.38;15.20;;;;;;;;;;4958962;28;95395;-75
2022/03/01 05:40:28;;;;;;;20.85;14.90;;;;;;;;;;4959198;28;93315;-75
2022/03/01 05:42:55;;;;;;;25.27;15.45;;;;;;;;;;4962225;28;92307;-75
2022/03/01 05:45:21;;;;;;;22.23;15.85;;;;;;;;;;4959096;28;93815;-75
2022/03/01 05:47:48;;;;;;;22.98;14.90;;;;;;;;;;4958972;28;92273;-75
2022/03/01 05:50:15;;;;;;;22.58;14.85;;;;;;;;;;4959108;28;93340;-75
2022/03/01 05:52:47;;;;;;;25.15;15.77;;;;;;;;;;4958942;28;94254;-74
2022/03/01 05:55:13;;;;;;;19.77;14.68;;;;;;;;;;4957977;28;92276;-74
2022/03/01 05:57:40;;;;;;;21.77;15.05;;;;;;;;;;4957370;28;93901;-75
2022/03/01 06:00:13;;;;;;;23.70;15.15;;;;;;;;;;4956878;28;96833;-75
2022/03/01 06:02:40;;;;;;;24.83;14.98;;;;;;;;;;4958987;28;92269;-74
2022/03/01 06:05:09;;;;;;;23.48;14.43;;;;;;;;;;4961561;28;93479;-74
2022/03/01 06:07:35;;;;;;;22.95;14.60;;;;;;;;;;4958868;28;92243;-74
2022/03/01 06:10:03;;;;;;;23.88;14.73;;;;;;;;;;4958803;28;92348;-75
2022/03/01 06:12:30;;;;;;;21.88;14.55;;;;;;;;;;4958623;28;94151;-75
2022/03/01 06:14:56;;;;;;;25.08;14.60;;;;;;;;;;4958432;28;92351;-76
2022/03/01 06:17:22;;;;;;;22.38;15.05;;;;;;;;;;4958906;28;93506;-75
2022/03/01 06:19:49;;;;;;;24.40;14.35;;;;;;;;;;4958083;28;93555;-74
2022/03/01 06:22:15;;;;;;;22.30;14.85;;;;;;;;;;4958354;28;92411;-75
2022/03/01 06:24:42;;;;;;;21.67;14.75;;;;;;;;;;4959895;28;94709;-74
2022/03/01 06:27:09;;;;;;;21.25;14.60;;;;;;;;;;4958289;28;92361;-75
2022/03/01 06:29:36;;;;;;;21.40;14.35;;;;;;;;;;4958483;28;92974;-74
2022/03/01 06:32:03;;;;;;;22.80;14.30;;;;;;;;;;4958125;28;93625;-75
2022/03/01 06:34:30;;;;;;;26.17;14.65;;;;;;;;;;4958475;28;92142;-74
2022/03/01 06:37:17;;;;;;;23.58;15.88;;;;;;;;;;4957664;28;93562;-74
2022/03/01 06:39:46;;;;;;;28.85;15.05;;;;;;;;;;4958149;28;93728;-74
2022/03/01 06:42:12;;;;;;;21.90;14.57;;;;;;;;;;4957937;28;91650;-74
2022/03/01 06:44:38;;;;;;;21.70;14.55;;;;;;;;;;4959368;28;92272;-74
2022/03/01 06:47:05;;;;;;;21.58;15.02;;;;;;;;;;4961031;28;93531;-73
2022/03/01 06:49:31;;;;;;;22.45;15.13;;;;;;;;;;4956324;28;94720;-74
2022/03/01 06:52:01;;;;;;;24.88;14.90;;;;;;;;;;4957969;28;93789;-74
2022/03/01 06:54:27;;;;;;;28.65;15.95;;;;;;;;;;4958082;28;92177;-74
2022/03/01 06:56:53;;;;;;;24.42;15.43;;;;;;;;;;4957665;28;93833;-74
2022/03/01 06:59:20;;;;;;;26.27;15.43;;;;;;;;;;4957239;28;93624;-74
2022/03/01 07:01:47;;;;;;;23.98;15.20;;;;;;;;;;4957983;28;92206;-75
2022/03/01 07:04:14;;;;;;;23.60;14.30;;;;;;;;;;4956881;28;92888;-73
2022/03/01 07:06:42;;;;;;;24.60;15.18;;;;;;;;;;4958333;28;92758;-74
2022/03/01 07:09:09;;;;;;;23.98;16.13;;;;;;;;;;4960636;28;92331;-74
2022/03/01 07:11:35;;;;;;;23.08;15.25;;;;;;;;;;4957606;28;94055;-74
2022/03/01 07:14:02;;;;;;;24.90;15.82;;;;;;;;;;4955737;28;94757;-75
2022/03/01 07:16:29;;;;;;;24.20;15.82;;;;;;;;;;4957417;28;95824;-74
2022/03/01 07:18:55;;;;;;;23.23;14.88;;;;;;;;;;4957559;28;93422;-74
2022/03/01 07:21:24;;;;;;;24.50;14.77;;;;;;;;;;4957710;28;92431;-74
2022/03/01 07:23:50;;;;;;;25.80;16.15;;;;;;;;;;4956647;28;92504;-74
2022/03/01 07:26:17;;;;;;;22.83;14.63;;;;;;;;;;4957503;28;93991;-73
2022/03/01 07:28:43;;;;;;;24.55;15.65;;;;;;;;;;4957375;28;92273;-77
2022/03/01 07:31:10;;;;;;;26.52;16.30;;;;;;;;;;4961014;28;92992;-72
2022/03/01 07:33:38;;;;;;;25.00;15.40;;;;;;;;;;4957374;28;92321;-74
2022/03/01 07:36:04;;;;;;;26.98;15.55;;;;;;;;;;4957529;28;92777;-74
2022/03/01 07:38:31;;;;;;;23.67;16.05;;;;;;;;;;4955567;28;95421;-73
2022/03/01 07:40:57;;;;;;;28.48;16.50;;;;;;;;;;4956936;28;92859;-73
2022/03/01 07:43:23;;;;;;;22.58;15.90;;;;;;;;;;4956941;28;93258;-72
2022/03/01 07:45:50;;;;;;;31.92;15.73;;;;;;;;;;4957310;28;93199;-74
2022/03/01 07:48:16;;;;;;;22.13;15.82;;;;;;;;;;4956235;28;92319;-75
2022/03/01 07:50:43;;;;;;;22.80;15.80;;;;;;;;;;4956989;28;94981;-75
2022/03/01 07:53:09;;;;;;;29.25;16.80;;;;;;;;;;4960003;28;92349;-75
2022/03/01 07:55:36;;;;;;;22.90;16.05;;;;;;;;;;4956996;28;92467;-75
2022/03/01 07:58:02;;;;;;;27.08;16.75;;;;;;;;;;4956774;28;93729;-74
2022/03/01 08:00:28;;;;;;;25.80;16.25;;;;;;;;;;4956998;28;92375;-74
2022/03/01 08:02:55;;;;;;;23.60;16.85;;;;;;;;;;4954616;28;95594;-74
2022/03/01 08:05:22;;;;;;;26.65;17.20;;;;;;;;;;4956673;28;95184;-75
2022/03/01 08:07:52;;;;;;;22.48;15.90;;;;;;;;;;4956858;28;92299;-76
2022/03/01 08:10:18;;;;;;;25.95;16.23;;;;;;;;;;4956673;28;93631;-75
2022/03/01 08:12:45;;;;;;;22.95;16.50;;;;;;;;;;4956797;28;93903;-75
2022/03/01 08:15:11;;;;;;;24.40;15.73;;;;;;;;;;4959553;28;92320;-75
2022/03/01 08:17:45;;;;;;;22.58;15.77;;;;;;;;;;4956644;28;92935;-75
2022/03/01 08:20:11;;;;;;;26.33;15.93;;;;;;;;;;4956512;28;91691;-73
2022/03/01 08:22:38;;;;;;;23.02;16.75;;;;;;;;;;4955866;28;92927;-73
2022/03/01 08:25:05;;;;;;;23.48;16.92;;;;;;;;;;4956314;28;93524;-75
2022/03/01 08:27:31;;;;;;;26.02;16.50;;;;;;;;;;4955046;28;94678;-75
2022/03/01 08:29:58;;;;;;;24.30;17.45;;;;;;;;;;4956577;28;95761;-76
2022/03/01 08:32:24;;;;;;;25.70;17.25;;;;;;;;;;4956526;28;93377;-76
2022/03/01 08:34:51;;;;;;;28.73;17.50;;;;;;;;;;4959694;28;92257;-79
2022/03/01 08:37:26;;;;;;;27.05;17.33;;;;;;;;;;4955326;28;93407;-81
2022/03/01 08:39:57;;;;;;;28.98;17.00;;;;;;;;;;4956620;28;92440;-77
2022/03/01 08:42:24;;;;;;;25.70;17.08;;;;;;;;;;4955488;28;93946;-76
2022/03/01 08:44:50;;;;;;;25.52;17.60;;;;;;;;;;4957066;28;92700;-75
2022/03/01 08:47:17;;;;;;;27.88;17.65;;;;;;;;;;4959796;28;92259;-76
2022/03/01 08:49:43;;;;;;;26.00;16.98;;;;;;;;;;4959398;28;92675;-76
2022/03/01 08:52:09;;;;;;;27.40;17.80;;;;;;;;;;4954247;28;95954;-77
2022/03/01 08:54:36;;;;;;;29.00;18.65;;;;;;;;;;4955457;28;92367;-77
2022/03/01 08:57:02;;;;;;;26.83;17.73;;;;;;;;;;4958098;28;95729;-77
2022/03/01 08:59:28;;;;;;;26.38;18.00;;;;;;;;;;4955273;28;92346;-77
2022/03/01 09:01:55;;;;;;;28.45;17.42;;;;;;;;;;4956464;28;93553;-76
2022/03/01 09:04:23;;;;;;;28.55;18.45;;;;;;;;;;4955631;28;93772;-75
2022/03/01 09:06:50;;;;;;;24.58;17.67;;;;;;;;;;4956258;28;92306;-75
2022/03/01 09:09:18;;;;;;;30.00;17.50;;;;;;;;;;4956775;28;93256;-77
2022/03/01 09:11:45;;;;;;;27.23;18.05;;;;;;;;;;4956087;28;93461;-77
2022/03/01 09:14:11;;;;;;;29.00;18.30;;;;;;;;;;4956188;28;92315;-75
2022/03/01 09:16:38;;;;;;;28.08;17.77;;;;;;;;;;4954482;28;94630;-74
2022/03/01 09:19:05;;;;;;;26.33;17.77;;;;;;;;;;4958417;28;93596;-75
2022/03/01 09:21:31;;;;;;;24.50;17.75;;;;;;;;;;4956216;28;93630;-79
2022/03/01 09:23:58;;;;;;;26.77;17.88;;;;;;;;;;4956067;28;93559;-78
2022/03/01 09:26:24;;;;;;;26.48;17.30;;;;;;;;;;4955915;28;92298;-76
2022/03/01 09:28:54;;;;;;;25.95;17.65;;;;;;;;;;4956111;28;93013;-77
2022/03/01 09:31:20;;;;;;;27.58;17.10;;;;;;;;;;4955814;28;93871;-76
2022/03/01 09:33:46;;;;;;;24.95;17.65;;;;;;;;;;4957464;28;91682;-75
2022/03/01 09:36:16;;;;;;;23.30;17.08;;;;;;;;;;4959386;28;92757;-74
2022/03/01 09:38:45;;;;;;;25.23;17.35;;;;;;;;;;4958256;28;93075;-73
2022/03/01 09:44:49;;;;;;;26.67;17.10;;;;;;;;;;5059651;27;86361;-76
2022/03/01 09:47:16;;;;;;;31.38;18.02;;;;;;;;;;5019391;28;89002;-79
2022/03/01 09:49:43;;;;;;;24.17;17.65;;;;;;;;;;5036433;28;88983;-77
2022/03/01 09:52:15;;;;;;;25.90;17.60;;;;;;;;;;5036129;28;89127;-78
2022/03/01 09:54:41;;;;;;;27.17;16.98;;;;;;;;;;5034694;28;92853;-77
2022/03/01 09:57:11;;;;;;;24.48;18.02;;;;;;;;;;5036231;28;89123;-76
2022/03/01 09:59:38;;;;;;;25.40;17.50;;;;;;;;;;5036169;27;89005;-77
2022/03/01 10:02:04;;;;;;;27.85;17.67;;;;;;;;;;5035924;28;90809;-76
2022/03/01 10:04:31;;;;;;;24.77;16.80;;;;;;;;;;5032861;28;92239;-76
2022/03/01 10:07:14;;;;;;;21.92;17.00;;;;;;;;;;5024260;28;91313;-83
2022/03/01 10:09:40;;;;;;;22.92;17.67;;;;;;;;;;5034836;28;92001;-80
2022/03/01 10:12:07;;;;;;;25.15;17.98;;;;;;;;;;5018294;28;90262;-77
2022/03/01 10:14:33;;;;;;;23.50;17.63;;;;;;;;;;5034933;28;91305;-81
2022/03/01 10:17:10;;;;;;;24.60;17.80;;;;;;;;;;5036040;28;89476;-75
2022/03/01 10:19:40;;;;;;;29.52;18.20;;;;;;;;;;5034968;28;89081;-75
2022/03/01 10:22:06;;;;;;;24.33;17.80;;;;;;;;;;5035847;28;90286;-76
2022/03/01 10:24:33;;;;;;;24.80;17.35;;;;;;;;;;5034823;28;89827;-75
2022/03/01 10:27:01;;;;;;;24.05;18.48;;;;;;;;;;5038779;28;89004;-77
2022/03/01 10:29:47;;;;;;;26.17;18.55;;;;;;;;;;5028467;27;89334;-76
2022/03/01 10:32:13;;;;;;;25.10;18.90;;;;;;;;;;5025470;27;89102;-75
2022/03/01 10:35:15;;;;;;;27.33;19.08;;;;;;;;;;5021200;27;90391;-77
2022/03/01 10:37:43;;;;;;;26.48;18.70;;;;;;;;;;4975697;27;89469;-76
2022/03/01 10:40:19;;;;;;;25.45;19.00;;;;;;;;;;5023422;27;88804;-75
2022/03/01 10:42:58;;;;;;;25.92;18.13;;;;;;;;;;5027116;27;91068;-75
2022/03/01 10:45:34;;;;;;;25.95;18.25;;;;;;;;;;5044439;27;89123;-75
2022/03/01 10:48:03;;;;;;;28.40;18.08;;;;;;;;;;5044934;27;89014;-75
2022/03/01 10:50:29;;;;;;;28.40;18.45;;;;;;;;;;5048779;27;90245;-77
2022/03/01 10:52:56;;;;;;;25.58;18.52;;;;;;;;;;5045008;27;89001;-77
2022/03/01 10:55:23;;;;;;;26.80;18.27;;;;;;;;;;5037581;27;91846;-76
2022/03/01 10:58:06;;;;;;;25.27;18.70;;;;;;;;;;5030037;27;89751;-77
2022/03/01 11:00:33;;;;;;;25.75;17.58;;;;;;;;;;5030687;27;89158;-76
2022/03/01 11:03:07;;;;;;;27.33;18.63;;;;;;;;;;5029641;27;90571;-76
2022/03/01 11:05:34;;;;;;;27.20;18.33;;;;;;;;;;5027612;27;89663;-74
2022/03/01 11:08:22;;;;;;;25.33;17.80;;;;;;;;;;5029364;27;89243;-76
2022/03/01 11:10:50;;;;;;;23.30;17.83;;;;;;;;;;5031391;27;90912;-73
2022/03/01 11:13:18;;;;;;;28.73;18.70;;;;;;;;;;5033994;27;89869;-76
2022/03/01 11:16:14;;;;;;;27.02;18.17;;;;;;;;;;5026474;27;90790;-75
2022/03/01 11:19:00;;;;;;;26.42;19.05;;;;;;;;;;5008541;27;89572;-75
2022/03/01 11:21:27;;;;;;;33.17;19.27;;;;;;;;;;5030361;27;89305;-79
2022/03/01 11:23:54;;;;;;;26.00;18.50;;;;;;;;;;5031102;27;89740;-78
2022/03/01 11:26:21;;;;;;;24.80;18.63;;;;;;;;;;5032353;27;89524;-77
2022/03/01 11:28:55;;;;;;;24.38;18.40;;;;;;;;;;5031107;27;88921;-77
2022/03/01 11:31:25;;;;;;;27.15;19.42;;;;;;;;;;5029140;27;90502;-76
2022/03/01 11:34:00;;;;;;;29.02;18.50;;;;;;;;;;5031421;27;89139;-75
2022/03/01 11:36:32;;;;;;;22.75;18.38;;;;;;;;;;5036382;27;89098;-76
2022/03/01 11:39:09;;;;;;;24.63;18.27;;;;;;;;;;5029043;27;89172;-77
2022/03/01 11:41:41;;;;;;;27.52;19.50;;;;;;;;;;5028718;27;89350;-76
2022/03/01 11:44:14;;;;;;;30.50;19.27;;;;;;;;;;5013626;27;89868;-77
2022/03/01 11:46:44;;;;;;;26.98;18.85;;;;;;;;;;5014609;27;89353;-76
2022/03/01 11:49:11;;;;;;;24.67;19.55;;;;;;;;;;5033089;27;89039;-77
2022/03/01 11:51:40;;;;;;;23.98;19.08;;;;;;;;;;5004891;28;91639;-76
2022/03/01 11:54:10;;;;;;;25.75;18.77;;;;;;;;;;5027817;27;90550;-77
2022/03/01 11:56:38;;;;;;;26.63;19.15;;;;;;;;;;5011267;28;89804;-75
2022/03/01 11:59:07;;;;;;;26.17;18.70;;;;;;;;;;5014757;28;89058;-77
2022/03/01 12:01:34;;;;;;;28.92;19.05;;;;;;;;;;5011486;28;89990;-77
2022/03/01 12:04:04;;;;;;;27.98;18.70;;;;;;;;;;5013659;27;89901;-77
2022/03/01 12:06:32;;;;;;;26.58;20.15;;;;;;;;;;5013876;28;91039;-77
2022/03/01 12:09:00;;;;;;;23.23;19.35;;;;;;;;;;5014865;27;88923;-77
2022/03/01 12:11:34;;;;;;;25.80;19.85;;;;;;;;;;5013202;27;92450;-77
2022/03/01 12:14:02;;;;;;;27.10;20.00;;;;;;;;;;5014159;27;89041;-78
2022/03/01 12:16:29;;;;;;;26.73;20.00;;;;;;;;;;5002558;27;89853;-79
2022/03/01 12:19:06;;;;;;;24.70;19.95;;;;;;;;;;5033809;27;90151;-78
2022/03/01 12:21:33;;;;;;;31.38;20.05;;;;;;;;;;5002222;28;89370;-76
2022/03/01 12:24:00;;;;;;;30.10;19.95;;;;;;;;;;5032964;27;89862;-76
2022/03/01 12:26:27;;;;;;;33.88;20.02;;;;;;;;;;5030925;27;89281;-74
2022/03/01 12:28:56;;;;;;;29.23;19.92;;;;;;;;;;5011584;28;89625;-75
2022/03/01 12:31:26;;;;;;;25.55;19.33;;;;;;;;;;5010731;27;89062;-74
2022/03/01 12:33:53;;;;;;;26.17;20.00;;;;;;;;;;5029156;27;89752;-77
2022/03/01 12:36:27;;;;;;;26.08;19.15;;;;;;;;;;5035999;27;88925;-81
2022/03/01 12:38:55;;;;;;;24.45;19.60;;;;;;;;;;5031335;27;91460;-81
2022/03/01 12:41:23;;;;;;;26.63;19.13;;;;;;;;;;5028041;27;90193;-77
2022/03/01 12:43:53;;;;;;;27.27;19.67;;;;;;;;;;5029811;27;89686;-77
2022/03/01 12:46:20;;;;;;;26.20;19.70;;;;;;;;;;5018631;27;90577;-74
2022/03/01 12:48:48;;;;;;;25.60;18.45;;;;;;;;;;5032214;27;88840;-76
2022/03/01 12:51:14;;;;;;;24.88;19.27;;;;;;;;;;5010711;27;93620;-73
2022/03/01 12:53:54;;;;;;;24.98;19.27;;;;;;;;;;5031358;27;89707;-75
2022/03/01 12:56:23;;;;;;;28.23;19.30;;;;;;;;;;5026438;27;88954;-72
2022/03/01 12:58:51;;;;;;;27.25;19.73;;;;;;;;;;5030037;27;90526;-73
2022/03/01 13:01:18;;;;;;;25.80;19.23;;;;;;;;;;5028348;27;89656;-70
2022/03/01 13:03:47;;;;;;;24.38;20.23;;;;;;;;;;5033180;27;88820;-76
2022/03/01 13:06:15;;;;;;;25.35;18.85;;;;;;;;;;5027849;27;89881;-76
2022/03/01 13:08:43;;;;;;;27.65;19.08;;;;;;;;;;5035303;27;89018;-76
2022/03/01 13:11:10;;;;;;;26.83;19.80;;;;;;;;;;5031388;27;89389;-74
2022/03/01 13:13:42;;;;;;;27.27;19.40;;;;;;;;;;5026693;27;89081;-72
2022/03/01 13:16:09;;;;;;;27.25;20.35;;;;;;;;;;5027532;27;88851;-73
2022/03/01 13:18:36;;;;;;;29.88;18.70;;;;;;;;;;5027119;27;90477;-72
2022/03/01 13:21:02;;;;;;;28.67;19.73;;;;;;;;;;5031611;27;89841;-79
2022/03/01 13:23:30;;;;;;;42.38;27.13;;;;;;;;;;4994727;27;89947;-77
2022/03/01 13:25:57;;;;;;;27.90;19.90;;;;;;;;;;5014596;28;90134;-78
2022/03/01 13:28:31;;;;;;;35.30;20.13;;;;;;;;;;5010310;27;89234;-75
2022/03/01 13:30:57;;;;;;;27.00;18.98;;;;;;;;;;5009272;27;89645;-77
2022/03/01 13:33:28;;;;;;;29.52;19.60;;;;;;;;;;5030411;27;89780;-76
2022/03/01 13:35:54;;;;;;;28.17;19.27;;;;;;;;;;5028463;27;89039;-79
2022/03/01 13:38:22;;;;;;;25.35;20.00;;;;;;;;;;5009509;28;92025;-78
2022/03/01 13:40:49;;;;;;;25.30;20.30;;;;;;;;;;5026597;27;89367;-76
2022/03/01 13:43:22;;;;;;;27.17;20.08;;;;;;;;;;5027203;27;88854;-77
2022/03/01 13:45:53;;;;;;;29.92;20.45;;;;;;;;;;5012496;28;92605;-76
2022/03/01 13:48:26;;;;;;;31.10;21.75;;;;;;;;;;5029599;27;89961;-79
2022/03/01 13:50:59;;;;;;;30.13;21.30;;;;;;;;;;5030569;27;89371;-77
2022/03/01 13:53:26;;;;;;;30.70;22.65;;;;;;;;;;5030242;27;90806;-78
2022/03/01 13:55:54;;;;;;;27.15;21.48;;;;;;;;;;5028735;27;89507;-77
2022/03/01 13:58:22;;;;;;;28.92;21.73;;;;;;;;;;5025752;27;92332;-77
2022/03/01 14:00:49;;;;;;;31.88;21.27;;;;;;;;;;5026402;27;90893;-77
2022/03/01 14:03:23;;;;;;;27.88;22.15;;;;;;;;;;5028743;27;89709;-77
2022/03/01 14:06:04;;;;;;;32.92;21.70;;;;;;;;;;5018851;27;89862;-78
2022/03/01 14:08:32;;;;;;;30.13;22.83;;;;;;;;;;5021167;28;89265;-78
2022/03/01 14:11:00;;;;;;;33.05;23.13;;;;;;;;;;5018338;28;90364;-78
2022/03/01 14:13:27;;;;;;;30.85;22.83;;;;;;;;;;5018196;28;89448;-78
2022/03/01 14:16:03;;;;;;;32.00;22.33;;;;;;;;;;5018330;28;88856;-78
2022/03/01 14:18:34;;;;;;;31.50;22.13;;;;;;;;;;5001093;28;90193;-80
2022/03/01 14:21:01;;;;;;;30.33;22.77;;;;;;;;;;5001685;28;89195;-79
2022/03/01 14:23:27;;;;;;;32.03;22.40;;;;;;;;;;5019411;28;89649;-79